createdAt,value
2022-11-28T00:01:31.863Z,97940.41
2022-11-28T00:04:01.288Z,97938.63
2022-11-28T00:06:32.543Z,97948.66
2022-11-28T00:09:02.805Z,97945.25
2022-11-28T00:11:32.869Z,97950.63
2022-11-28T00:14:01.826Z,97941.69
2022-11-28T00:16:31.089Z,97927.91
2022-11-28T00:19:02.952Z,97927.75
2022-11-28T00:21:34.050Z,97917.19
2022-11-28T00:24:03.310Z,97906.03
2022-11-28T00:26:36.305Z,97905.03
2022-11-28T00:29:07.884Z,97893.84
2022-11-28T00:31:43.876Z,97889.94
2022-11-28T00:34:15.049Z,97898.06
2022-11-28T00:36:48.764Z,97905.53
2022-11-28T00:39:18.429Z,97905.84
2022-11-28T00:41:47.409Z,97888.34
2022-11-28T00:44:17.912Z,97886.72
2022-11-28T00:46:46.935Z,97888.34
2022-11-28T00:49:16.023Z,97884.13
2022-11-28T00:51:47.365Z,97868.88
2022-11-28T00:54:16.652Z,97863.50
2022-11-28T00:56:45.323Z,97862.38
2022-11-28T00:59:15.418Z,97849.41
2022-11-28T01:01:45.705Z,97853.13
2022-11-28T01:04:18.826Z,97854.91
2022-11-28T01:06:51.936Z,97858.31
2022-11-28T01:09:23.867Z,97850.38
2022-11-28T01:11:55.014Z,97852.97
2022-11-28T01:14:27.074Z,97852.00
2022-11-28T01:16:56.983Z,97860.75
2022-11-28T01:19:27.719Z,97857.50
2022-11-28T01:21:58.360Z,97852.31
2022-11-28T01:24:28.693Z,97852.31
2022-11-28T01:26:58.810Z,97856.53
2022-11-28T01:29:29.033Z,97851.19
2022-11-28T01:31:58.028Z,97850.38
2022-11-28T01:34:26.731Z,97851.34
2022-11-28T01:36:57.691Z,97850.38
2022-11-28T01:39:26.757Z,97848.75
2022-11-28T01:41:56.199Z,97852.31
2022-11-28T01:45:09.298Z,97845.53
2022-11-28T01:47:38.547Z,97840.81
2022-11-28T01:50:11.753Z,97829.78
2022-11-28T01:52:49.209Z,97831.72
2022-11-28T01:55:24.458Z,97826.38
2022-11-28T01:57:57.136Z,97826.53
2022-11-28T02:00:27.629Z,97826.53
2022-11-28T02:03:05.386Z,97820.72
2022-11-28T02:05:35.130Z,97817.63
2022-11-28T02:08:06.912Z,97824.44
2022-11-28T02:10:52.808Z,97821.19
2022-11-28T02:13:37.194Z,97817.97
2022-11-28T02:16:26.698Z,97818.91
2022-11-28T02:19:22.777Z,97823.47
2022-11-28T02:22:02.261Z,97804.66
2022-11-28T02:25:27.066Z,97800.28
2022-11-28T02:28:29.722Z,97790.72
2022-11-28T02:31:18.774Z,97795.72
2022-11-28T02:33:54.738Z,97799.13
2022-11-28T02:36:33.205Z,97792.94
2022-11-28T02:39:18.003Z,97792.63
2022-11-28T02:41:57.426Z,97786.16
2022-11-28T02:44:34.625Z,97782.91
2022-11-28T02:47:10.210Z,97778.84
2022-11-28T02:49:50.059Z,97783.72
2022-11-28T02:52:25.447Z,97773.84
2022-11-28T02:54:56.895Z,97763.47
2022-11-28T02:57:35.894Z,97757.28
2022-11-28T03:00:30.095Z,97747.09
2022-11-28T03:03:37.068Z,97747.22
2022-11-28T03:06:20.698Z,97746.59
2022-11-28T03:09:12.854Z,97748.22
2022-11-28T03:11:56.051Z,97750.81
2022-11-28T03:14:50.400Z,97753.72
2022-11-28T03:18:00.860Z,97758.41
2022-11-28T03:20:42.927Z,97757.94
2022-11-28T03:23:19.660Z,97769.13
2022-11-28T03:26:00.212Z,97759.88
2022-11-28T03:28:42.016Z,97761.19
2022-11-28T03:31:19.059Z,97769.94
2022-11-28T03:33:57.665Z,97756.00
2022-11-28T03:36:32.740Z,97741.25
2022-11-28T03:39:10.448Z,97750.03
2022-11-28T03:41:44.799Z,97745.44
2022-11-28T03:44:24.877Z,97741.41
2022-11-28T03:46:56.838Z,97735.41
2022-11-28T03:49:32.461Z,97739.78
2022-11-28T03:52:07.446Z,97735.41
2022-11-28T03:54:47.004Z,97739.78
2022-11-28T03:57:24.802Z,97733.31
2022-11-28T03:59:56.415Z,97736.88
2022-11-28T04:02:35.978Z,97735.25
2022-11-28T04:05:19.812Z,97740.75
2022-11-28T04:07:55.377Z,97745.31
2022-11-28T04:10:34.223Z,97736.88
2022-11-28T04:13:17.343Z,97745.94
2022-11-28T04:15:55.830Z,97747.72
2022-11-28T04:18:38.277Z,97741.56
2022-11-28T04:21:16.295Z,97745.16
2022-11-28T04:23:48.727Z,97733.28
2022-11-28T04:26:27.740Z,97730.69
2022-11-28T04:29:01.647Z,97734.91
2022-11-28T04:31:32.882Z,97736.38
2022-11-28T04:34:07.077Z,97735.25
2022-11-28T04:36:41.382Z,97729.25
2022-11-28T04:39:17.524Z,97735.25
2022-11-28T04:41:55.480Z,97723.25
2022-11-28T04:44:32.961Z,97719.84
2022-11-28T04:47:02.685Z,97721.63
2022-11-28T04:49:33.321Z,97708.66
2022-11-28T04:52:10.873Z,97713.22
2022-11-28T04:54:50.751Z,97716.63
2022-11-28T04:57:31.460Z,97701.88
2022-11-28T05:00:04.137Z,97702.84
2022-11-28T05:02:35.416Z,97722.13
2022-11-28T05:05:09.683Z,97723.91
2022-11-28T05:07:39.262Z,97730.72
2022-11-28T05:10:10.979Z,97723.91
2022-11-28T05:12:41.838Z,97727.44
2022-11-28T05:15:18.972Z,97721.31
2022-11-28T05:17:48.522Z,97725.53
2022-11-28T05:20:18.778Z,97723.91
2022-11-28T05:22:48.630Z,97713.88
2022-11-28T05:25:18.735Z,97714.81
2022-11-28T05:27:49.464Z,97718.06
2022-11-28T05:30:19.924Z,97714.50
2022-11-28T05:32:48.772Z,97720.00
2022-11-28T05:35:18.012Z,97734.59
2022-11-28T05:37:48.413Z,97737.81
2022-11-28T05:40:18.039Z,97731.19
2022-11-28T05:42:50.064Z,97733.59
2022-11-28T05:45:19.660Z,97737.00
2022-11-28T05:47:48.995Z,97738.13
2022-11-28T05:50:17.617Z,97733.91
2022-11-28T05:52:47.438Z,97726.00
2022-11-28T05:55:17.283Z,97718.38
2022-11-28T05:57:48.078Z,97720.31
2022-11-28T06:00:18.117Z,97720.81
2022-11-28T06:02:47.043Z,97719.03
2022-11-28T06:05:41.124Z,97711.91
2022-11-28T06:08:08.145Z,97722.94
2022-11-28T06:10:37.386Z,97728.41
2022-11-28T06:13:08.591Z,97726.50
2022-11-28T06:15:38.700Z,97732.63
2022-11-28T06:18:08.756Z,97725.69
2022-11-28T06:20:37.886Z,97724.03
2022-11-28T06:23:07.493Z,97725.53
2022-11-28T06:25:37.284Z,97728.13
2022-11-28T06:28:08.887Z,97740.09
2022-11-28T06:30:38.415Z,97739.44
2022-11-28T06:33:07.771Z,97736.69
2022-11-28T06:35:37.331Z,97733.94
2022-11-28T06:38:11.416Z,97729.72
2022-11-28T06:40:43.995Z,97726.03
2022-11-28T06:43:15.193Z,97731.03
2022-11-28T06:45:44.572Z,97738.31
2022-11-28T06:48:13.062Z,97745.25
2022-11-28T06:50:42.844Z,97744.31
2022-11-28T06:53:12.478Z,97745.13
2022-11-28T06:55:42.591Z,97736.38
2022-11-28T06:58:13.336Z,97724.88
2022-11-28T07:00:42.414Z,97718.25
2022-11-28T07:03:12.704Z,97718.88
2022-11-28T07:05:43.362Z,97725.53
2022-11-28T07:08:13.461Z,97732.34
2022-11-28T07:10:42.583Z,97732.00
2022-11-28T07:13:13.369Z,97730.88
2022-11-28T07:15:50.917Z,97745.63
2022-11-28T07:18:19.480Z,97741.75
2022-11-28T07:20:48.583Z,97742.56
2022-11-28T07:23:17.658Z,97737.19
2022-11-28T07:25:46.118Z,97742.38
2022-11-28T07:28:20.680Z,97737.84
2022-11-28T07:31:04.535Z,97735.91
2022-11-28T07:33:34.984Z,97741.91
2022-11-28T07:36:05.646Z,97740.13
2022-11-28T07:38:35.204Z,97742.72
2022-11-28T07:41:09.923Z,97737.03
2022-11-28T07:43:42.956Z,97736.69
2022-11-28T07:46:15.978Z,97733.47
2022-11-28T07:48:45.204Z,97744.00
2022-11-28T07:51:18.652Z,97736.88
2022-11-28T07:53:48.722Z,97733.81
2022-11-28T07:56:20.649Z,97744.97
2022-11-28T07:58:51.517Z,97740.78
2022-11-28T08:01:23.676Z,97732.34
2022-11-28T08:03:54.143Z,97728.78
2022-11-28T08:06:27.612Z,97732.00
2022-11-28T08:09:01.261Z,97736.38
2022-11-28T08:11:30.904Z,97733.66
2022-11-28T08:14:02.400Z,97739.78
2022-11-28T08:16:33.412Z,97742.38
2022-11-28T08:19:04.365Z,97737.88
2022-11-28T08:21:35.877Z,97738.84
2022-11-28T08:24:08.092Z,97739.66
2022-11-28T08:26:37.928Z,97735.72
2022-11-28T08:29:08.715Z,97735.25
2022-11-28T08:31:40.756Z,97727.16
2022-11-28T08:34:12.790Z,97733.00
2022-11-28T08:36:43.459Z,97729.25
2022-11-28T08:40:23.660Z,97731.53
2022-11-28T08:42:53.689Z,97724.22
2022-11-28T08:45:24.816Z,97723.06
2022-11-28T08:47:55.677Z,97723.75
2022-11-28T08:50:25.158Z,97731.19
2022-11-28T08:52:54.749Z,97725.19
2022-11-28T08:55:31.949Z,97719.19
2022-11-28T08:58:01.893Z,97718.84
2022-11-28T09:00:33.729Z,97720.16
2022-11-28T09:03:03.286Z,97717.41
2022-11-28T09:05:33.118Z,97714.28
2022-11-28T09:08:03.286Z,97722.91
2022-11-28T09:10:32.823Z,97720.28
2022-11-28T09:13:02.284Z,97718.41
2022-11-28T09:15:33.986Z,97719.84
2022-11-28T09:18:02.764Z,97713.69
2022-11-28T09:20:33.214Z,97725.50
2022-11-28T09:23:02.500Z,97730.22
2022-11-28T09:25:31.548Z,97725.66
2022-11-28T09:28:02.277Z,97729.06
2022-11-28T09:30:33.561Z,97742.66
2022-11-28T09:33:02.231Z,97724.50
2022-11-28T09:35:31.385Z,97731.97
2022-11-28T09:38:01.339Z,97733.59
2022-11-28T09:40:38.230Z,97737.81
2022-11-28T09:43:19.830Z,97741.84
2022-11-28T09:45:56.441Z,97740.06
2022-11-28T09:48:34.374Z,97732.91
2022-11-28T09:51:19.701Z,97736.16
2022-11-28T09:54:01.751Z,97735.19
2022-11-28T09:56:30.642Z,97735.00
2022-11-28T09:59:03.584Z,97734.19
2022-11-28T10:01:46.391Z,97737.47
2022-11-28T10:04:25.675Z,97735.69
2022-11-28T10:07:08.408Z,97737.47
2022-11-28T10:09:55.348Z,97731.94
2022-11-28T10:12:42.530Z,97741.84
2022-11-28T10:15:27.438Z,97726.06
2022-11-28T10:18:16.856Z,97726.75
2022-11-28T10:20:52.185Z,97728.38
2022-11-28T10:23:31.531Z,97722.03
2022-11-28T10:26:08.844Z,97720.06
2022-11-28T10:28:44.071Z,97722.50
2022-11-28T10:31:22.450Z,97720.38
2022-11-28T10:34:00.193Z,97720.19
2022-11-28T10:36:41.289Z,97722.63
2022-11-28T10:39:15.011Z,97722.28
2022-11-28T10:42:11.685Z,97722.75
2022-11-28T10:45:10.369Z,97724.41
2022-11-28T10:48:29.517Z,97725.69
2022-11-28T10:51:07.317Z,97725.34
2022-11-28T10:53:53.489Z,97723.38
2022-11-28T10:56:39.391Z,97726.28
2022-11-28T10:59:21.479Z,97727.88
2022-11-28T11:01:53.284Z,97719.94
2022-11-28T11:04:27.377Z,97717.97
2022-11-28T11:07:19.502Z,97711.63
2022-11-28T11:09:51.046Z,97716.66
2022-11-28T11:12:27.196Z,97706.91
2022-11-28T11:14:56.709Z,97708.50
2022-11-28T11:17:35.493Z,97716.78
2022-11-28T11:20:28.404Z,97712.22
2022-11-28T11:23:02.006Z,97712.69
2022-11-28T11:25:33.920Z,97711.53
2022-11-28T11:28:06.786Z,97704.56
2022-11-28T11:30:40.226Z,97719.97
2022-11-28T11:33:19.105Z,97711.81
2022-11-28T11:35:50.691Z,97714.88
2022-11-28T11:38:36.323Z,97708.56
2022-11-28T11:41:30.517Z,97704.78
2022-11-28T11:44:34.382Z,97700.06
2022-11-28T11:47:10.454Z,97707.50
2022-11-28T11:49:43.782Z,97704.56
2022-11-28T11:52:23.533Z,97703.59
2022-11-28T11:55:04.971Z,97702.63
2022-11-28T11:57:41.073Z,97693.66
2022-11-28T12:00:20.897Z,97690.69
2022-11-28T12:02:58.022Z,97696.72
2022-11-28T12:05:52.415Z,97697.34
2022-11-28T12:08:32.801Z,97705.78
2022-11-28T12:11:15.714Z,97703.00
2022-11-28T12:13:45.491Z,97695.19
2022-11-28T12:16:39.764Z,97689.84
2022-11-28T12:19:27.295Z,97693.72
2022-11-28T12:22:13.699Z,97689.13
2022-11-28T12:24:58.138Z,97684.59
2022-11-28T12:27:51.281Z,97673.81
2022-11-28T12:30:48.418Z,97682.09
2022-11-28T12:33:45.487Z,97680.91
2022-11-28T12:36:26.685Z,97687.75
2022-11-28T12:39:19.000Z,97682.81
2022-11-28T12:42:41.704Z,97679.84
2022-11-28T12:45:41.569Z,97681.13
2022-11-28T12:48:29.210Z,97671.38
2022-11-28T12:51:09.806Z,97673.59
2022-11-28T12:54:28.945Z,97677.66
2022-11-28T12:57:12.432Z,97684.94
2022-11-28T13:00:01.044Z,97677.75
2022-11-28T13:02:51.947Z,97675.75
2022-11-28T13:05:42.697Z,97675.44
2022-11-28T13:08:48.816Z,97682.88
2022-11-28T13:11:40.268Z,97685.94
2022-11-28T13:14:24.128Z,97676.13
2022-11-28T13:17:01.599Z,97674.00
2022-11-28T13:19:45.883Z,97672.66
2022-11-28T13:22:23.706Z,97666.09
2022-11-28T13:25:05.176Z,97664.13
2022-11-28T13:27:45.936Z,97660.19
2022-11-28T13:30:23.876Z,97670.69
2022-11-28T13:33:06.162Z,97662.50
2022-11-28T13:35:36.200Z,97666.38
2022-11-28T13:41:43.306Z,97666.44
2022-11-28T13:44:15.458Z,97656.47
2022-11-28T13:46:46.119Z,97661.53
2022-11-28T13:49:27.225Z,97670.75
2022-11-28T13:52:33.001Z,97670.59
2022-11-28T13:55:03.061Z,97677.22
2022-11-28T13:57:39.969Z,97674.25
2022-11-28T14:00:24.227Z,97672.28
2022-11-28T14:03:00.005Z,97666.31
2022-11-28T14:05:37.155Z,97665.13
2022-11-28T14:08:09.065Z,97673.56
2022-11-28T14:11:55.268Z,97667.38
2022-11-28T14:15:06.561Z,97669.59
2022-11-28T14:17:56.296Z,97665.19
2022-11-28T14:20:38.866Z,97658.00
2022-11-28T14:23:27.570Z,97665.81
2022-11-28T14:25:58.127Z,97662.22
2022-11-28T14:28:32.825Z,97661.25
2022-11-28T14:31:18.001Z,97663.84
2022-11-28T14:33:49.428Z,97674.06
2022-11-28T14:36:33.766Z,97668.88
2022-11-28T14:39:33.034Z,97680.91
2022-11-28T14:46:24.514Z,97677.50
2022-11-28T14:49:23.067Z,97680.09
2022-11-28T14:52:39.168Z,97685.31
2022-11-28T14:55:21.885Z,97687.91
2022-11-28T14:57:59.301Z,97686.31
2022-11-28T15:00:34.539Z,97694.91
2022-11-28T15:03:27.031Z,97688.72
2022-11-28T15:06:04.059Z,97690.50
2022-11-28T15:09:02.009Z,97690.72
2022-11-28T15:12:13.832Z,97683.72
2022-11-28T15:14:47.286Z,97693.13
2022-11-28T15:17:17.596Z,97698.97
2022-11-28T15:19:50.826Z,97698.34
2022-11-28T15:22:34.567Z,97704.19
2022-11-28T15:25:06.640Z,97704.19
2022-11-28T15:27:38.910Z,97705.16
2022-11-28T15:30:18.522Z,97707.78
2022-11-28T15:32:48.734Z,97712.97
2022-11-28T15:35:20.232Z,97707.78
2022-11-28T15:37:56.756Z,97708.75
2022-11-28T15:40:36.198Z,97709.41
2022-11-28T15:43:12.657Z,97698.34
2022-11-28T15:45:42.811Z,97703.53
2022-11-28T15:48:39.254Z,97698.34
2022-11-28T15:51:10.073Z,97706.16
2022-11-28T15:53:43.390Z,97709.56
2022-11-28T15:56:16.379Z,97710.53
2022-11-28T15:58:47.786Z,97718.38
2022-11-28T16:01:21.756Z,97720.19
2022-11-28T16:03:56.619Z,97720.00
2022-11-28T16:06:32.329Z,97720.00
2022-11-28T16:09:05.119Z,97726.19
2022-11-28T16:11:37.547Z,97721.16
2022-11-28T16:14:12.625Z,97720.19
2022-11-28T16:16:43.710Z,97721.16
2022-11-28T16:19:26.544Z,97727.34
2022-11-28T16:22:00.040Z,97731.59
2022-11-28T16:24:38.530Z,97723.94
2022-11-28T16:27:34.449Z,97725.72
2022-11-28T16:30:21.477Z,97722.97
2022-11-28T16:32:50.958Z,97726.53
2022-11-28T16:35:29.799Z,97730.16
2022-11-28T16:38:18.439Z,97723.31
2022-11-28T16:40:48.737Z,97725.94
2022-11-28T16:43:30.135Z,97731.31
2022-11-28T16:46:01.589Z,97731.69
2022-11-28T16:48:35.750Z,97736.44
2022-11-28T16:51:32.726Z,97740.81
2022-11-28T16:54:21.995Z,97741.97
2022-11-28T16:56:50.715Z,97743.44
2022-11-28T16:59:22.500Z,97738.88
2022-11-28T17:01:55.105Z,97737.88
2022-11-28T17:04:25.885Z,97738.88
2022-11-28T17:06:58.395Z,97738.88
2022-11-28T17:09:28.904Z,97737.88
2022-11-28T17:12:06.111Z,97750.09
2022-11-28T17:14:37.894Z,97742.28
2022-11-28T17:17:14.649Z,97743.28
2022-11-28T17:19:43.988Z,97745.69
2022-11-28T17:22:18.016Z,97747.31
2022-11-28T17:24:48.338Z,97747.31
2022-11-28T17:27:18.112Z,97745.69
2022-11-28T17:29:48.846Z,97751.53
2022-11-28T17:32:17.535Z,97743.72
2022-11-28T17:34:47.119Z,97752.50
2022-11-28T17:37:17.046Z,97757.72
2022-11-28T17:40:05.956Z,97759.34
2022-11-28T17:42:36.460Z,97756.09
2022-11-28T17:45:16.466Z,97756.09
2022-11-28T17:47:45.867Z,97752.72
2022-11-28T17:50:14.839Z,97763.91
2022-11-28T17:52:44.575Z,97758.69
2022-11-28T17:55:14.151Z,97754.50
2022-11-28T17:57:44.081Z,97759.88
2022-11-28T18:00:18.512Z,97741.66
2022-11-28T18:02:46.901Z,97744.44
2022-11-28T18:05:16.482Z,97748.97
2022-11-28T18:07:46.594Z,97755.00
2022-11-28T18:10:16.881Z,97753.25
2022-11-28T18:12:45.893Z,97748.97
2022-11-28T18:15:16.195Z,97753.56
2022-11-28T18:17:45.215Z,97751.94
2022-11-28T18:20:13.818Z,97757.16
2022-11-28T18:22:43.118Z,97756.69
2022-11-28T18:25:13.892Z,97745.66
2022-11-28T18:27:44.421Z,97753.66
2022-11-28T18:30:19.543Z,97754.47
2022-11-28T18:32:49.058Z,97761.47
2022-11-28T18:35:19.553Z,97752.03
2022-11-28T18:37:49.486Z,97753.03
2022-11-28T18:40:19.254Z,97757.44
2022-11-28T18:42:49.381Z,97756.63
2022-11-28T18:45:20.127Z,97761.81
2022-11-28T18:47:50.086Z,97763.44
2022-11-28T18:50:20.784Z,97767.03
2022-11-28T18:52:50.888Z,97764.59
2022-11-28T18:55:20.280Z,97769.19
2022-11-28T18:57:50.520Z,97768.56
2022-11-28T19:00:24.138Z,97756.53
2022-11-28T19:02:53.725Z,97764.50
2022-11-28T19:05:22.744Z,97772.16
2022-11-28T19:07:51.892Z,97773.13
2022-11-28T19:10:20.556Z,97773.31
2022-11-28T19:12:49.640Z,97773.13
2022-11-28T19:15:20.591Z,97784.34
2022-11-28T19:17:50.370Z,97774.09
2022-11-28T19:20:20.152Z,97783.72
2022-11-28T19:22:49.158Z,97774.28
2022-11-28T19:25:19.691Z,97778.69
2022-11-28T19:27:49.016Z,97777.25
2022-11-28T19:30:18.631Z,97776.25
2022-11-28T19:32:49.961Z,97781.47
2022-11-28T19:35:19.183Z,97785.06
2022-11-28T19:37:48.805Z,97789.63
2022-11-28T19:40:19.081Z,97786.03
2022-11-28T19:42:48.799Z,97787.03
2022-11-28T19:45:19.676Z,97789.47
2022-11-28T19:47:50.181Z,97786.03
2022-11-28T19:50:19.751Z,97792.88
2022-11-28T19:52:49.229Z,97798.91
2022-11-28T19:55:17.891Z,97800.50
2022-11-28T19:57:47.781Z,97794.31
2022-11-28T20:00:20.669Z,97797.88
2022-11-28T20:02:51.143Z,97799.69
2022-11-28T20:05:21.130Z,97799.69
2022-11-28T20:07:56.887Z,97804.28
2022-11-28T20:10:27.405Z,97799.22
2022-11-28T20:12:56.915Z,97801.66
2022-11-28T20:15:26.541Z,97806.06
2022-11-28T20:17:56.825Z,97806.25
2022-11-28T20:20:26.816Z,97812.09
2022-11-28T20:22:57.624Z,97816.31
2022-11-28T20:25:27.967Z,97817.28
2022-11-28T20:27:57.474Z,97816.00
2022-11-28T20:30:27.599Z,97817.66
2022-11-28T20:32:57.415Z,97821.22
2022-11-28T20:35:27.624Z,97820.59
2022-11-28T20:37:57.184Z,97824.63
2022-11-28T20:40:26.343Z,97821.06
2022-11-28T20:42:55.938Z,97821.22
2022-11-28T20:45:26.082Z,97825.81
2022-11-28T20:47:55.942Z,97826.78
2022-11-28T20:50:25.542Z,97832.00
2022-11-28T20:52:54.048Z,97826.78
2022-11-28T20:55:23.250Z,97832.00
2022-11-28T20:57:52.799Z,97832.81
2022-11-28T21:00:26.751Z,97830.00
2022-11-28T21:02:57.331Z,97832.00
2022-11-28T21:05:26.462Z,97832.97
2022-11-28T21:07:54.917Z,97833.97
2022-11-28T21:10:24.040Z,97842.13
2022-11-28T21:12:53.530Z,97834.13
2022-11-28T21:15:22.106Z,97837.56
2022-11-28T21:17:51.090Z,97835.94
2022-11-28T21:20:21.538Z,97841.13
2022-11-28T21:22:50.510Z,97836.94
2022-11-28T21:25:19.102Z,97835.94
2022-11-28T21:27:48.554Z,97836.13
2022-11-28T21:30:18.842Z,97844.38
2022-11-28T21:32:48.883Z,97842.41
2022-11-28T21:35:17.599Z,97849.25
2022-11-28T21:37:48.625Z,97843.22
2022-11-28T21:40:18.896Z,97840.41
2022-11-28T21:42:47.888Z,97848.44
2022-11-28T21:45:17.315Z,97837.81
2022-11-28T21:47:47.319Z,97841.59
2022-11-28T21:50:16.603Z,97835.56
2022-11-28T21:52:47.095Z,97837.19
2022-11-28T21:55:16.741Z,97840.41
2022-11-28T21:57:45.515Z,97832.00
2022-11-28T22:00:45.531Z,97832.97
2022-11-28T22:03:16.427Z,97842.13
2022-11-28T22:05:46.685Z,97843.72
2022-11-28T22:08:17.071Z,97842.75
2022-11-28T22:10:47.259Z,97842.75
2022-11-28T22:13:16.049Z,97838.72
2022-11-28T22:15:44.792Z,97835.31
2022-11-28T22:18:15.624Z,97837.91
2022-11-28T22:20:50.257Z,97849.13
2022-11-28T22:23:23.632Z,97844.75
2022-11-28T22:25:53.452Z,97833.69
2022-11-28T22:28:22.949Z,97844.75
2022-11-28T22:30:52.513Z,97847.00
2022-11-28T22:33:21.309Z,97845.97
2022-11-28T22:35:50.764Z,97846.78
2022-11-28T22:38:22.636Z,97845.00
2022-11-28T22:40:52.091Z,97851.03
2022-11-28T22:43:22.101Z,97850.22
2022-11-28T22:45:57.920Z,97850.38
2022-11-28T22:48:27.292Z,97853.78
2022-11-28T22:50:55.669Z,97854.81
2022-11-28T22:53:27.032Z,97857.41
2022-11-28T22:55:57.671Z,97853.97
2022-11-28T22:58:27.182Z,97866.00
2022-11-28T23:00:57.254Z,97857.41
2022-11-28T23:03:28.017Z,97860.97
2022-11-28T23:05:58.232Z,97859.53
2022-11-28T23:08:31.210Z,97856.13
2022-11-28T23:11:00.752Z,97858.72
2022-11-28T23:13:30.699Z,97863.13
2022-11-28T23:16:13.136Z,97868.31
2022-11-28T23:18:42.863Z,97863.13
2022-11-28T23:21:12.928Z,97861.50
2022-11-28T23:23:44.051Z,97862.31
2022-11-28T23:26:16.101Z,97870.31
2022-11-28T23:28:46.324Z,97864.91
2022-11-28T23:31:18.812Z,97868.31
2022-11-28T23:33:48.593Z,97863.13
2022-11-28T23:36:20.472Z,97877.94
2022-11-28T23:38:53.804Z,97871.09
2022-11-28T23:41:23.073Z,97874.69
2022-11-28T23:43:52.342Z,97869.50
2022-11-28T23:46:23.250Z,97874.84
2022-11-28T23:48:52.538Z,97876.66
2022-11-28T23:51:24.729Z,97874.03
2022-11-28T23:53:55.178Z,97871.44
2022-11-28T23:56:26.623Z,97870.47
2022-11-28T23:58:57.606Z,97872.25
